Airfield :
LOGIN :

Register | Disclaimer

   EN    FR    IT 

 










Legend :    VFR   Marginal VFR   IFR   Intensive IFR   Very Intensive IFR
Visi :
Ceiling :
>= 8 km
>= 3000ft
5 to 8 km
1000 to 3000 ft
1500m to 5 km
500 to 1000 ft
800 to 1500m
200 to 500 ft
< 800m
< 200 ft
Symbols :   Thunderstorms  Fog  Heavy snow  Heavy precipitations  Wind > 20 kt
SIGMETs :     Misc.  Thunderstorms  Icing  Turbulence  Mountain Waves  Volcanic Ashes







- Airport Elevation : 187 ft


ETNW - Wunstorf AB

CURRENT METAR :
  • 261220Z AUTO 04009KT //// // ////// 10/04 Q1027 ///

EXPIRED METARs :
  • 261120Z AUTO 36003KT //// // ////// 10/04 Q1026 ///
  • 261020Z AUTO 30001KT //// // ////// 08/04 Q1027 ///

TAF TAF ETNW
Valid from the 26 at 11:00 until the 27 at 11:00 UTC


261000Z 2611/2711 VRB03KT 5000 BR BKN007
BECMG 2611/2614 VRB03KT 9999 NSW SCT020
TEMPO 2622/2708 VRB03KT 2000 MIFG BKN010
BECMG 2708/2711 18005KT 8000 NSW FEW030 CANCEL BY ETGL
No reported NOTAMs for that airfield.



MET'MAP, your aeronautical weather chart ! - Copyright ORBIFLY December 2007 - Disclaimer

ORBIFLY MET'MAP TEAM :

Programming & Development : Alexandra Zaïnal
Concept & Development : Baudouin d'Aumeries
Co-Development & Prog : Marc-Olivier Méhu
Technical & hardware support : Manuel Goepfert

Contact : metmap@orbifly.com




SOURCES & CREDITS :

   NOAA